Time;durP1;ratioP1;P1;durP2;ratioP2;P2;SDS_P1;SDS_P2;PMS_P1;PMS_P2;Temp;Humidity;BMP_temperature;BMP_pressure;BME280_temperature;BME280_humidity;BME280_pressure;Samples;Min_cycle;Max_cycle;Signal;HPM_P1;HPM_P2
2021/05/09 00:02:09;;;;;;;;;;;;;;;2.11;100.00;99657.25;1811957;79;21130;-74
2021/05/09 00:04:38;;;;;;;;;;;;;;;2.14;100.00;99654.20;1817047;77;20636;-75
2021/05/09 00:07:06;;;;;;;;;;;;;;;2.17;100.00;99657.47;1817732;77;20226;-73
2021/05/09 00:09:35;;;;;;;;;;;;;;;2.14;100.00;99662.66;1814697;78;20655;-74
2021/05/09 00:12:04;;;;;;;;;;;;;;;2.13;100.00;99661.84;1815646;77;20263;-74
2021/05/09 00:14:33;;;;;;;;;;;;;;;2.14;100.00;99656.03;1811895;78;21180;-74
2021/05/09 00:17:01;;;;;;;;;;;;;;;2.19;100.00;99659.42;1811432;79;20205;-74
2021/05/09 00:19:29;;;;;;;;;;;;;;;2.17;100.00;99663.58;1806899;78;20525;-74
2021/05/09 00:21:56;;;;;;;;;;;;;;;2.17;100.00;99670.20;1812705;78;20207;-73
2021/05/09 00:24:24;;;;;;;;;;;;;;;2.11;100.00;99667.84;1808466;78;20232;-73
2021/05/09 00:26:52;;;;;;;;;;;;;;;2.08;100.00;99669.56;1815972;77;21202;-72
2021/05/09 00:29:20;;;;;;;;;;;;;;;1.99;100.00;99672.05;1818873;77;20232;-73
2021/05/09 00:31:49;;;;;;;;;;;;;;;1.90;100.00;99672.70;1811508;78;20221;-73
2021/05/09 00:34:17;;;;;;;;;;;;;;;1.81;100.00;99669.88;1811584;78;20149;-73
2021/05/09 00:36:44;;;;;;;;;;;;;;;1.75;100.00;99674.64;1819985;77;20498;-74
2021/05/09 00:39:12;;;;;;;;;;;;;;;1.74;100.00;99672.17;1812877;78;21381;-74
2021/05/09 00:41:39;;;;;;;;;;;;;;;1.71;100.00;99673.37;1817994;78;20260;-74
2021/05/09 00:44:08;;;;;;;;;;;;;;;1.69;100.00;99683.34;1805608;78;20235;-73
2021/05/09 00:46:36;;;;;;;;;;;;;;;1.65;100.00;99676.81;1803730;78;20133;-74
2021/05/09 00:49:04;;;;;;;;;;;;;;;1.66;100.00;99679.25;1816780;77;20500;-74
2021/05/09 00:51:32;;;;;;;;;;;;;;;1.70;100.00;99686.31;1795782;77;21288;-74
2021/05/09 00:54:06;;;;;;;;;;;;;;;1.68;100.00;99682.52;1812430;78;20540;-73
2021/05/09 00:56:34;;;;;;;;;;;;;;;1.70;100.00;99690.28;1816828;77;20155;-74
2021/05/09 00:59:02;;;;;;;;;;;;;;;1.67;100.00;99693.32;1806461;77;20216;-73
2021/05/09 01:01:31;;;;;;;;;;;;;;;1.70;100.00;99694.25;1812275;79;20230;-75
2021/05/09 01:04:01;;;;;;;;;;;;;;;1.66;100.00;99700.92;1776549;79;22139;-74
2021/05/09 01:06:30;;;;;;;;;;;;;;;1.63;100.00;99698.67;1811264;79;20209;-73
2021/05/09 01:09:00;;;;;;;;;;;;;;;1.63;100.00;99701.31;1810262;78;20145;-74
2021/05/09 01:11:29;;;;;;;;;;;;;;;1.61;100.00;99700.69;1809345;78;20213;-75
2021/05/09 01:13:59;;;;;;;;;;;;;;;1.58;100.00;99698.43;1811347;78;20228;-74
2021/05/09 01:16:28;;;;;;;;;;;;;;;1.55;100.00;99706.76;1805165;78;21189;-75
2021/05/09 01:19:00;;;;;;;;;;;;;;;1.51;100.00;99703.66;1840697;78;20238;-74
2021/05/09 01:21:27;;;;;;;;;;;;;;;1.47;100.00;99703.72;1841898;77;20111;-74
2021/05/09 01:23:55;;;;;;;;;;;;;;;1.45;100.00;99706.58;1846235;77;20127;-75
2021/05/09 01:26:24;;;;;;;;;;;;;;;1.45;100.00;99700.47;1836240;77;20222;-75
2021/05/09 01:28:52;;;;;;;;;;;;;;;1.47;100.00;99712.50;1824319;78;21192;-74
2021/05/09 01:31:20;;;;;;;;;;;;;;;1.44;100.00;99714.18;1816799;77;20470;-75
2021/05/09 01:33:48;;;;;;;;;;;;;;;1.42;100.00;99714.90;1816765;77;20210;-76
2021/05/09 01:36:16;;;;;;;;;;;;;;;1.45;100.00;99714.51;1816735;77;20115;-75
2021/05/09 01:38:43;;;;;;;;;;;;;;;1.44;100.00;99716.83;1810528;77;20224;-74
2021/05/09 01:41:12;;;;;;;;;;;;;;;1.38;100.00;99719.43;1812328;78;21191;-75
2021/05/09 01:43:40;;;;;;;;;;;;;;;1.35;100.00;99720.63;1807436;78;20299;-74
2021/05/09 01:46:08;;;;;;;;;;;;;;;1.29;100.00;99720.05;1807481;78;20510;-74
2021/05/09 01:48:36;;;;;;;;;;;;;;;1.25;100.00;99722.27;1811532;78;20696;-74
2021/05/09 01:51:05;;;;;;;;;;;;;;;1.23;100.00;99722.14;1807586;78;20265;-75
2021/05/09 01:53:34;;;;;;;;;;;;;;;1.22;100.00;99729.23;1820392;79;21542;-75
2021/05/09 01:56:02;;;;;;;;;;;;;;;1.21;100.00;99732.08;1813938;79;20156;-73
2021/05/09 01:58:34;;;;;;;;;;;;;;;1.24;100.00;99741.77;1738655;81;20151;-73
2021/05/09 02:01:10;;;;;;;;;;;;;;;1.26;100.00;99744.23;1710988;82;20224;-73
2021/05/09 02:03:40;;;;;;;;;;;;;;;1.24;100.00;99739.63;1744995;82;20281;-74
2021/05/09 02:06:08;;;;;;;;;;;;;;;1.25;100.00;99745.22;1716911;82;22260;-74
2021/05/09 02:08:38;;;;;;;;;;;;;;;1.20;100.00;99744.49;1734871;81;20229;-73
2021/05/09 02:11:11;;;;;;;;;;;;;;;1.20;100.00;99752.42;1736764;81;20628;-74
2021/05/09 02:13:40;;;;;;;;;;;;;;;1.24;100.00;99752.85;1735093;82;20637;-74
2021/05/09 02:16:15;;;;;;;;;;;;;;;1.26;100.00;99752.98;1731314;81;20513;-74
2021/05/09 02:18:44;;;;;;;;;;;;;;;1.25;100.00;99760.61;1732571;81;21504;-74
2021/05/09 02:21:11;;;;;;;;;;;;;;;1.23;100.00;99762.62;1741760;81;20538;-72
2021/05/09 02:23:40;;;;;;;;;;;;;;;1.20;100.00;99766.13;1730208;81;20500;-73
2021/05/09 02:26:08;;;;;;;;;;;;;;;1.21;100.00;99775.71;1736357;81;20154;-74
2021/05/09 02:28:36;;;;;;;;;;;;;;;1.15;100.00;99779.94;1736277;81;20230;-74
2021/05/09 02:31:06;;;;;;;;;;;;;;;1.12;100.00;99787.41;1779952;78;22295;-75
2021/05/09 02:33:36;;;;;;;;;;;;;;;1.05;100.00;99792.12;1773176;79;20215;-74
2021/05/09 02:36:05;;;;;;;;;;;;;;;1.07;100.00;99790.60;1749602;81;20509;-74
2021/05/09 02:38:33;;;;;;;;;;;;;;;1.07;100.00;99798.53;1746992;82;20156;-74
2021/05/09 02:41:00;;;;;;;;;;;;;;;1.07;100.00;99801.98;1747667;81;20322;-74
2021/05/09 02:43:28;;;;;;;;;;;;;;;1.06;100.00;99805.65;1749714;81;21446;-74
2021/05/09 02:45:56;;;;;;;;;;;;;;;1.07;100.00;99799.85;1750512;82;20132;-74
2021/05/09 02:48:24;;;;;;;;;;;;;;;1.09;100.00;99807.61;1744073;81;20234;-74
2021/05/09 02:50:52;;;;;;;;;;;;;;;1.13;100.00;99803.57;1733930;81;20250;-74
2021/05/09 02:53:21;;;;;;;;;;;;;;;1.15;100.00;99805.53;1732271;81;20282;-74
2021/05/09 02:55:51;;;;;;;;;;;;;;;1.13;100.00;99807.06;1734883;82;21226;-73
2021/05/09 02:58:19;;;;;;;;;;;;;;;1.16;100.00;99815.12;1782954;80;20250;-74
2021/05/09 03:00:52;;;;;;;;;;;;;;;1.16;100.00;99821.73;1747998;80;20151;-74
2021/05/09 03:03:19;;;;;;;;;;;;;;;1.19;100.00;99821.34;1783935;80;21147;-74
2021/05/09 03:05:48;;;;;;;;;;;;;;;1.27;100.00;99822.55;1781590;80;20152;-74
2021/05/09 03:08:16;;;;;;;;;;;;;;;1.32;100.00;99825.96;1738123;81;21217;-74
2021/05/09 03:10:46;;;;;;;;;;;;;;;1.37;100.00;99829.70;1750508;81;20136;-74
2021/05/09 03:13:14;;;;;;;;;;;;;;;1.43;100.00;99841.35;1757864;81;20140;-74
2021/05/09 03:15:43;;;;;;;;;;;;;;;1.46;100.00;99838.33;1758373;81;20177;-74
2021/05/09 03:18:13;;;;;;;;;;;;;;;1.53;100.00;99838.41;1728298;81;20257;-75
2021/05/09 03:20:42;;;;;;;;;;;;;;;1.58;100.00;99834.17;1777103;80;21205;-75
2021/05/09 03:23:11;;;;;;;;;;;;;;;1.63;100.00;99846.34;1779728;80;20194;-74
2021/05/09 03:25:39;;;;;;;;;;;;;;;1.68;100.00;99844.45;1775214;80;20223;-74
2021/05/09 03:28:07;;;;;;;;;;;;;;;1.78;100.00;99846.28;1776898;79;20167;-75
2021/05/09 03:30:35;;;;;;;;;;;;;;;1.86;100.00;99854.11;1742757;81;20248;-76
2021/05/09 03:33:04;;;;;;;;;;;;;;;1.96;100.00;99852.47;1756263;81;21149;-75
2021/05/09 03:35:34;;;;;;;;;;;;;;;2.04;100.00;99851.00;1751041;81;20141;-75
2021/05/09 03:38:02;;;;;;;;;;;;;;;2.15;100.00;99861.56;1746158;81;20228;-75
2021/05/09 03:40:30;;;;;;;;;;;;;;;2.27;100.00;99861.36;1751996;81;20240;-76
2021/05/09 03:43:03;;;;;;;;;;;;;;;2.35;100.00;99859.91;1748612;82;20130;-75
2021/05/09 03:45:39;;;;;;;;;;;;;;;2.46;100.00;99862.53;1747631;81;20229;-75
2021/05/09 03:48:11;;;;;;;;;;;;;;;2.57;100.00;99869.95;1754218;81;20702;-75
2021/05/09 03:50:50;;;;;;;;;;;;;;;2.68;100.00;99877.05;1725643;81;20253;-73
2021/05/09 03:53:30;;;;;;;;;;;;;;;2.84;100.00;99878.55;1854924;77;20240;-75
2021/05/09 03:56:08;;;;;;;;;;;;;;;2.90;100.00;99885.23;1791771;78;20494;-76
2021/05/09 03:58:36;;;;;;;;;;;;;;;2.99;100.00;99889.88;1822643;78;21660;-75
2021/05/09 04:01:14;;;;;;;;;;;;;;;3.08;100.00;99890.01;1803857;78;20147;-75
2021/05/09 04:03:48;;;;;;;;;;;;;;;3.17;100.00;99890.16;1790255;80;20150;-76
2021/05/09 04:06:17;;;;;;;;;;;;;;;3.30;100.00;99894.70;1790381;80;20141;-75
2021/05/09 04:08:50;;;;;;;;;;;;;;;3.41;100.00;99901.30;1790309;80;20169;-75
2021/05/09 04:11:22;;;;;;;;;;;;;;;3.51;100.00;99902.25;1790257;80;22155;-75
2021/05/09 04:13:50;;;;;;;;;;;;;;;3.59;100.00;99904.72;1790271;80;20162;-75
2021/05/09 04:16:20;;;;;;;;;;;;;;;3.71;100.00;99911.59;1760154;80;20520;-75
2021/05/09 04:18:48;;;;;;;;;;;;;;;3.79;100.00;99916.72;1790237;80;20154;-75
2021/05/09 04:21:18;;;;;;;;;;;;;;;3.90;100.00;99913.48;1789781;80;20540;-76
2021/05/09 04:23:48;;;;;;;;;;;;;;;3.99;100.00;99924.72;1790233;80;21192;-75
2021/05/09 04:26:17;;;;;;;;;;;;;;;4.17;100.00;99923.64;1790195;80;20161;-75
2021/05/09 04:28:45;;;;;;;;;;;;;;;4.34;100.00;99929.90;1790232;80;20174;-75
2021/05/09 04:31:15;;;;;;;;;;;;;;;4.47;100.00;99944.51;1788442;78;20321;-75
2021/05/09 04:33:47;;;;;;;;;;;;;;;4.51;100.00;99939.91;1787355;78;20155;-75
2021/05/09 04:36:17;;;;;;;;;;;;;;;4.58;100.00;99944.39;1783452;80;21411;-76
2021/05/09 04:38:49;;;;;;;;;;;;;;;4.72;100.00;99946.03;1783982;80;20234;-75
2021/05/09 04:41:17;;;;;;;;;;;;;;;4.89;100.00;99945.09;1791391;78;20135;-75
2021/05/09 04:43:45;;;;;;;;;;;;;;;4.96;100.00;99947.23;1816037;78;20141;-73
2021/05/09 04:46:20;;;;;;;;;;;;;;;5.07;100.00;99950.61;1811683;78;20248;-75
2021/05/09 04:48:49;;;;;;;;;;;;;;;5.21;100.00;99954.03;1813979;78;21500;-75
2021/05/09 04:51:19;;;;;;;;;;;;;;;5.28;100.00;99961.48;1804150;78;20128;-74
2021/05/09 04:53:49;;;;;;;;;;;;;;;5.47;100.00;99958.99;1824405;78;20499;-74
2021/05/09 04:56:23;;;;;;;;;;;;;;;5.61;100.00;99967.73;1785728;79;20505;-74
2021/05/09 05:10:18;;;;;;;;;;;;;;;6.50;100.00;99970.86;1849891;77;20241;-76
2021/05/09 05:13:03;;;;;;;;;;;;;;;6.40;100.00;99977.19;1822249;78;20117;-75
2021/05/09 05:15:45;;;;;;;;;;;;;;;6.51;100.00;99977.81;1821314;78;21192;-76
2021/05/09 05:18:15;;;;;;;;;;;;;;;6.78;100.00;99980.27;1820332;78;20188;-73
2021/05/09 05:21:05;;;;;;;;;;;;;;;6.94;100.00;99979.72;1788008;80;20198;-76
2021/05/09 05:23:45;;;;;;;;;;;;;;;7.01;100.00;99980.48;1790047;80;20603;-75
2021/05/09 05:26:16;;;;;;;;;;;;;;;6.95;100.00;99993.87;1787856;80;20159;-75
2021/05/09 05:28:46;;;;;;;;;;;;;;;7.07;100.00;99992.94;1786573;80;21140;-75
2021/05/09 05:31:25;;;;;;;;;;;;;;;7.19;100.00;99999.70;1787828;80;20140;-75
2021/05/09 05:34:26;;;;;;;;;;;;;;;7.29;100.00;100001.34;1787656;80;20159;-74
2021/05/09 05:37:18;;;;;;;;;;;;;;;7.47;100.00;100005.06;1853626;77;20193;-76
2021/05/09 05:39:51;;;;;;;;;;;;;;;7.41;100.00;100011.31;1819612;78;20129;-75
2021/05/09 05:42:20;;;;;;;;;;;;;;;7.52;100.00;100013.22;1783779;80;22253;-77
2021/05/09 05:44:55;;;;;;;;;;;;;;;7.52;100.00;99999.87;1788656;78;20521;-75
2021/05/09 05:48:10;;;;;;;;;;;;;;;7.66;100.00;100013.37;1806644;78;20495;-72
2021/05/09 05:50:52;;;;;;;;;;;;;;;7.79;100.00;100019.11;1822079;78;20196;-72
2021/05/09 05:53:23;;;;;;;;;;;;;;;7.88;100.00;100019.08;1820568;78;20622;-73
2021/05/09 05:56:01;;;;;;;;;;;;;;;7.88;100.00;100019.08;1822468;78;21356;-79
2021/05/09 05:58:30;;;;;;;;;;;;;;;8.04;100.00;100020.86;1792756;78;20176;-75
2021/05/09 06:01:06;;;;;;;;;;;;;;;8.23;100.00;100030.98;1778860;80;20486;-78
2021/05/09 06:03:56;;;;;;;;;;;;;;;8.24;100.00;100028.09;1773335;80;20183;-75
2021/05/09 06:06:49;;;;;;;;;;;;;;;8.46;100.00;100028.95;1789407;78;20224;-77
2021/05/09 06:09:36;;;;;;;;;;;;;;;8.66;100.00;100033.48;1784562;78;20116;-73
2021/05/09 06:12:05;;;;;;;;;;;;;;;8.82;100.00;100042.72;1818643;78;20137;-76
2021/05/09 06:14:33;;;;;;;;;;;;;;;8.93;100.00;100048.59;1796114;78;20147;-71
2021/05/09 06:17:01;;;;;;;;;;;;;;;9.09;100.00;100052.97;1789921;80;20334;-72
2021/05/09 06:19:30;;;;;;;;;;;;;;;9.23;100.00;100053.05;1782677;80;20265;-72
2021/05/09 06:22:29;;;;;;;;;;;;;;;9.29;100.00;100058.02;1785865;80;20210;-75
2021/05/09 06:25:06;;;;;;;;;;;;;;;9.49;100.00;100050.96;1784725;80;20766;-73
2021/05/09 06:27:53;;;;;;;;;;;;;;;9.85;100.00;100047.99;1789972;80;20297;-73
2021/05/09 06:30:35;;;;;;;;;;;;;;;9.86;100.00;100049.61;1791531;80;20282;-74
2021/05/09 06:34:08;;;;;;;;;;;;;;;;;;;;;
2021/05/09 06:47:18;;;;;;;;;;;;;;;11.21;100.00;100062.52;1852528;77;20209;-73
2021/05/09 06:49:58;;;;;;;;;;;;;;;11.12;100.00;100064.82;1822440;78;20527;-75
2021/05/09 06:52:27;;;;;;;;;;;;;;;10.99;100.00;100066.47;1821291;78;21187;-75
2021/05/09 06:55:14;;;;;;;;;;;;;;;11.13;100.00;100058.38;1810048;79;20133;-74
2021/05/09 06:57:44;;;;;;;;;;;;;;;11.23;100.00;100060.94;1789570;78;20164;-72
2021/05/09 07:00:14;;;;;;;;;;;;;;;10.96;100.00;100066.16;1790831;78;20247;-73
2021/05/09 07:03:00;;;;;;;;;;;;;;;10.94;100.00;100062.36;1821228;78;20787;-73
2021/05/09 07:06:08;;;;;;;;;;;;;;;11.58;97.98;100070.85;1814655;78;21443;-73
2021/05/09 07:22:32;;;;;;;;;;;;;;;11.18;100.00;100064.89;1845149;77;20249;-74
2021/05/09 07:24:57;;;;;;;;;;;;;;;11.62;100.00;100054.25;1858711;77;20497;-73
2021/05/09 07:27:25;;;;;;;;;;;;;;;12.09;96.69;100059.17;1856426;77;20196;-74
2021/05/09 07:29:54;;;;;;;;;;;;;;;12.37;87.86;100060.81;1857984;77;20662;-74
2021/05/09 07:32:27;;;;;;;;;;;;;;;12.18;91.78;100064.39;1826541;77;20138;-74
2021/05/09 07:35:03;;;;;;;;;;;;;;;11.78;93.58;100057.40;1858413;77;20241;-72
2021/05/09 07:37:54;;;;;;;;;;;;;;;11.11;88.44;100058.34;1845055;75;20355;-77
2021/05/09 07:40:31;;;;;;;;;;;;;;;10.76;92.09;100066.09;1839525;76;20226;-75
2021/05/09 07:43:01;;;;;;;;;;;;;;;11.45;89.18;100061.00;1870237;76;21193;-74
2021/05/09 07:45:33;;;;;;;;;;;;;;;11.99;85.73;100062.01;1849338;76;20287;-74
2021/05/09 07:48:02;;;;;;;;;;;;;;;12.27;84.91;100060.17;1824021;77;20160;-71
2021/05/09 07:50:32;;;;;;;;;;;;;;;12.34;84.79;100067.52;1822345;78;20499;-74
2021/05/09 07:53:03;;;;;;;;;;;;;;;12.69;81.86;100075.70;1823288;78;20396;-73
2021/05/09 07:55:34;;;;;;;;;;;;;;;13.17;78.64;100071.25;1822932;78;21304;-75
2021/05/09 07:58:17;;;;;;;;;;;;;;;13.27;78.93;100068.65;1823327;77;20142;-73
2021/05/09 08:00:47;;;;;;;;;;;;;;;13.44;72.49;100066.34;1857332;77;20688;-76
2021/05/09 08:03:21;;;;;;;;;;;;;;;12.37;77.29;100068.38;1857702;77;20492;-73
2021/05/09 08:05:50;;;;;;;;;;;;;;;11.79;83.62;100063.08;1857702;77;20179;-74
2021/05/09 08:08:27;;;;;;;;;;;;;;;11.61;86.54;100066.05;1812702;77;21136;-73
2021/05/09 08:11:13;;;;;;;;;;;;;;;;;;;;;
2021/05/09 08:13:56;;;;;;;;;;;;;;;11.41;86.10;100063.88;1818948;78;20138;-75
2021/05/09 08:16:25;;;;;;;;;;;;;;;11.41;86.54;100062.00;1823665;78;20239;-72
2021/05/09 08:19:00;;;;;;;;;;;;;;;11.68;84.13;100066.68;1793278;78;20267;-77
2021/05/09 08:21:42;;;;;;;;;;;;;;;12.25;78.70;100068.22;1823482;78;21395;-75
2021/05/09 08:24:10;;;;;;;;;;;;;;;12.78;75.30;100073.34;1824003;78;20238;-75
2021/05/09 08:26:40;;;;;;;;;;;;;;;12.88;74.78;100069.39;1823220;78;20183;-76
2021/05/09 08:29:08;;;;;;;;;;;;;;;12.70;74.32;100075.97;1824049;77;20224;-74
2021/05/09 08:31:42;;;;;;;;;;;;;;;12.79;73.06;100077.68;1842189;77;20259;-73
2021/05/09 08:34:12;;;;;;;;;;;;;;;12.84;72.20;100069.64;1840072;77;21374;-76
2021/05/09 08:36:54;;;;;;;;;;;;;;;13.00;70.97;100065.98;1832267;77;20727;-74
2021/05/09 08:39:26;;;;;;;;;;;;;;;12.65;68.02;100065.95;1792045;77;20293;-72
2021/05/09 08:41:56;;;;;;;;;;;;;;;13.28;70.27;100072.18;1824686;77;20133;-75
2021/05/09 08:44:34;;;;;;;;;;;;;;;;;;;;;
2021/05/09 08:47:22;;;;;;;;;;;;;;;13.99;69.25;100083.08;1829520;77;21197;-71
2021/05/09 08:49:50;;;;;;;;;;;;;;;14.85;67.24;100075.80;1823493;77;20224;-72
2021/05/09 08:52:20;;;;;;;;;;;;;;;14.10;64.98;100079.36;1821253;78;20144;-74
2021/05/09 08:54:49;;;;;;;;;;;;;;;13.44;68.48;100076.58;1821138;78;20494;-75
2021/05/09 08:57:17;;;;;;;;;;;;;;;13.40;66.66;100084.10;1821329;78;20109;-74
2021/05/09 08:59:50;;;;;;;;;;;;;;;13.42;64.75;100078.72;1821056;78;21368;-73
2021/05/09 09:02:22;;;;;;;;;;;;;;;13.48;64.91;100073.66;1790041;78;20213;-75
2021/05/09 09:04:55;;;;;;;;;;;;;;;13.59;61.75;100065.08;1820677;78;20254;-71
2021/05/09 09:07:24;;;;;;;;;;;;;;;13.31;63.77;100073.55;1820983;78;20219;-76
2021/05/09 09:09:58;;;;;;;;;;;;;;;13.62;61.50;100073.18;1834256;77;20620;-74
2021/05/09 09:12:28;;;;;;;;;;;;;;;13.14;62.33;100068.27;1838240;78;22183;-75
2021/05/09 09:14:59;;;;;;;;;;;;;;;13.03;60.34;100070.89;1808875;78;20158;-75
2021/05/09 09:17:28;;;;;;;;;;;;;;;13.67;63.92;100080.79;1837683;77;20289;-73
2021/05/09 09:20:17;;;;;;;;;;;;;;;14.43;62.12;100078.13;1848366;77;20504;-70
2021/05/09 09:23:05;;;;;;;;;;;;;;;14.33;56.66;100089.72;1854393;77;20198;-70
2021/05/09 09:25:37;;;;;;;;;;;;;;;13.88;57.89;100082.23;1853896;77;21659;-76
2021/05/09 09:28:09;;;;;;;;;;;;;;;14.11;57.61;100078.27;1854827;77;20131;-75
2021/05/09 09:30:54;;;;;;;;;;;;;;;14.37;60.11;100082.69;1829274;77;20224;-72
2021/05/09 09:33:23;;;;;;;;;;;;;;;14.72;56.67;100078.48;1821668;78;20487;-74
2021/05/09 09:35:57;;;;;;;;;;;;;;;14.22;59.18;100077.79;1821569;77;20109;-74
2021/05/09 09:38:29;;;;;;;;;;;;;;;13.97;59.69;100077.16;1827276;78;21898;-75
2021/05/09 09:41:15;;;;;;;;;;;;;;;13.94;60.99;100087.40;1827126;78;20219;-75
2021/05/09 09:43:45;;;;;;;;;;;;;;;13.32;61.01;100084.59;1826257;77;20154;-75
2021/05/09 09:46:29;;;;;;;;;;;;;;;13.16;61.64;100079.61;1825564;78;20531;-75
2021/05/09 09:48:57;;;;;;;;;;;;;;;13.72;60.90;100076.77;1827508;78;20236;-74
2021/05/09 09:51:25;;;;;;;;;;;;;;;14.26;57.46;100072.95;1827623;78;20507;-76
2021/05/09 09:54:02;;;;;;;;;;;;;;;14.64;56.17;100079.00;1827200;78;20200;-74
2021/05/09 09:56:29;;;;;;;;;;;;;;;14.12;56.43;100075.86;1827310;78;20503;-75
2021/05/09 09:59:05;;;;;;;;;;;;;;;13.90;58.83;100072.80;1827236;78;20141;-74
2021/05/09 10:01:35;;;;;;;;;;;;;;;14.02;58.84;100075.83;1827607;78;20240;-71
2021/05/09 10:04:07;;;;;;;;;;;;;;;14.43;56.00;100081.34;1827419;78;20529;-75
2021/05/09 10:06:38;;;;;;;;;;;;;;;14.13;56.54;100078.83;1826964;78;20140;-75
2021/05/09 10:09:09;;;;;;;;;;;;;;;14.05;57.44;100080.15;1826850;78;20148;-73
2021/05/09 10:11:38;;;;;;;;;;;;;;;14.32;55.68;100077.81;1827121;78;20292;-74
2021/05/09 10:14:07;;;;;;;;;;;;;;;14.70;55.26;100077.94;1834266;77;20172;-73
2021/05/09 10:16:42;;;;;;;;;;;;;;;15.08;51.11;100081.74;1827127;78;21181;-74
2021/05/09 10:19:13;;;;;;;;;;;;;;;14.42;51.39;100082.44;1827131;78;20144;-75
2021/05/09 10:21:42;;;;;;;;;;;;;;;14.09;54.71;100086.66;1827557;78;20167;-70
2021/05/09 10:24:22;;;;;;;;;;;;;;;13.82;52.70;100076.55;1826581;78;20326;-71
2021/05/09 10:27:06;;;;;;;;;;;;;;;14.26;53.69;100086.45;1824474;78;20246;-74
2021/05/09 10:29:38;;;;;;;;;;;;;;;14.66;51.40;100082.25;1820708;78;22172;-74
2021/05/09 10:32:22;;;;;;;;;;;;;;;15.33;50.72;100084.97;1820979;78;20141;-71
2021/05/09 10:37:45;;;;;;;;;;;;;;;15.86;45.10;100084.08;1854576;77;20185;-74
2021/05/09 10:40:23;;;;;;;;;;;;;;;15.18;44.73;100085.24;1822074;78;20546;-73
2021/05/09 10:43:15;;;;;;;;;;;;;;;15.21;47.27;100089.30;1821855;78;21369;-74
2021/05/09 10:45:46;;;;;;;;;;;;;;;14.68;46.76;100085.50;1803257;78;20111;-76
2021/05/09 10:48:22;;;;;;;;;;;;;;;13.93;50.21;100085.76;1789622;80;20218;-75
2021/05/09 10:50:57;;;;;;;;;;;;;;;14.09;52.26;100084.50;1790019;80;20119;-75
2021/05/09 10:53:38;;;;;;;;;;;;;;;14.34;52.72;100080.52;1790029;80;20433;-73
2021/05/09 10:56:11;;;;;;;;;;;;;;;14.43;50.62;100077.30;1789684;80;21336;-74
2021/05/09 10:58:46;;;;;;;;;;;;;;;14.21;51.47;100073.45;1789667;80;20199;-75
2021/05/09 11:01:24;;;;;;;;;;;;;;;13.91;49.39;100072.26;1789569;80;20218;-73
2021/05/09 11:04:05;;;;;;;;;;;;;;;13.22;51.56;100073.17;1789823;80;20588;-74
2021/05/09 11:06:41;;;;;;;;;;;;;;;13.04;53.40;100071.69;1789699;80;20182;-74
2021/05/09 11:09:23;;;;;;;;;;;;;;;13.81;54.67;100070.32;1759007;80;22307;-68
2021/05/09 11:11:54;;;;;;;;;;;;;;;14.74;51.70;100077.66;1776785;80;20210;-76
2021/05/09 11:14:21;;;;;;;;;;;;;;;14.94;49.77;100083.64;1790011;80;20163;-75
2021/05/09 11:17:03;;;;;;;;;;;;;;;14.90;47.17;100077.15;1789531;78;20802;-75
2021/05/09 11:19:40;;;;;;;;;;;;;;;14.68;47.58;100076.59;1761156;80;20139;-76
2021/05/09 11:22:19;;;;;;;;;;;;;;;14.75;50.49;100077.14;1789411;80;21055;-77
2021/05/09 11:25:01;;;;;;;;;;;;;;;14.71;48.22;100079.55;1789469;78;20536;-76
2021/05/09 11:27:30;;;;;;;;;;;;;;;14.96;48.08;100071.19;1788984;78;20297;-73
2021/05/09 11:30:02;;;;;;;;;;;;;;;15.09;46.88;100059.02;1789848;78;20227;-75
2021/05/09 11:32:32;;;;;;;;;;;;;;;15.08;46.94;100073.08;1789127;78;20246;-75
2021/05/09 11:35:02;;;;;;;;;;;;;;;15.03;47.19;100070.39;1790340;80;21137;-75
2021/05/09 11:37:37;;;;;;;;;;;;;;;14.58;46.84;100077.37;1789812;80;20107;-76
2021/05/09 11:40:10;;;;;;;;;;;;;;;14.19;49.23;100075.63;1790122;80;20139;-74
2021/05/09 11:42:38;;;;;;;;;;;;;;;13.82;47.37;100062.52;1789901;80;20524;-74
2021/05/09 11:45:06;;;;;;;;;;;;;;;13.56;48.59;100074.23;1800734;78;20147;-74
2021/05/09 11:47:39;;;;;;;;;;;;;;;13.43;48.47;100075.52;1805232;78;21195;-75
2021/05/09 11:50:10;;;;;;;;;;;;;;;13.68;48.43;100074.30;1785393;78;20486;-74
2021/05/09 11:52:43;;;;;;;;;;;;;;;14.45;48.25;100061.09;1788472;79;20490;-75
2021/05/09 11:55:14;;;;;;;;;;;;;;;15.06;43.35;100072.54;1790689;78;20216;-75
2021/05/09 11:57:43;;;;;;;;;;;;;;;15.14;39.15;100071.18;1802793;78;20219;-75
2021/05/09 12:00:13;;;;;;;;;;;;;;;15.31;41.92;100064.14;1797189;78;21127;-75
2021/05/09 12:02:43;;;;;;;;;;;;;;;15.02;41.73;100072.83;1789163;80;20154;-74
2021/05/09 12:05:16;;;;;;;;;;;;;;;14.57;42.56;100062.23;1791493;78;20252;-74
2021/05/09 12:07:59;;;;;;;;;;;;;;;14.17;46.11;100060.23;1819064;78;20495;-74
2021/05/09 12:10:31;;;;;;;;;;;;;;;14.23;44.89;100058.61;1820469;78;20555;-78
2021/05/09 12:13:07;;;;;;;;;;;;;;;14.71;44.40;100063.34;1820269;78;21183;-72
2021/05/09 12:15:43;;;;;;;;;;;;;;;15.33;43.66;100062.78;1805096;78;20161;-74
2021/05/09 12:18:13;;;;;;;;;;;;;;;15.60;42.38;100067.06;1821110;78;20200;-74
2021/05/09 12:20:45;;;;;;;;;;;;;;;15.93;41.00;100054.82;1820902;78;20236;-74
2021/05/09 12:23:25;;;;;;;;;;;;;;;16.14;40.53;100060.94;1805966;78;20596;-73
2021/05/09 12:25:55;;;;;;;;;;;;;;;16.42;40.01;100062.16;1797059;78;21196;-75
2021/05/09 12:28:27;;;;;;;;;;;;;;;16.17;39.74;100057.70;1782300;80;20610;-73
2021/05/09 12:30:56;;;;;;;;;;;;;;;15.97;38.39;100066.73;1782202;80;20258;-75
2021/05/09 12:33:31;;;;;;;;;;;;;;;15.94;40.91;100063.20;1768532;80;20553;-75
2021/05/09 12:36:10;;;;;;;;;;;;;;;15.64;39.41;100060.03;1811174;78;20239;-76
2021/05/09 12:38:39;;;;;;;;;;;;;;;15.39;40.77;100050.08;1784552;78;21364;-74
2021/05/09 12:41:17;;;;;;;;;;;;;;;14.79;40.76;100056.05;1783561;80;20505;-76
2021/05/09 12:43:47;;;;;;;;;;;;;;;14.51;42.39;100058.69;1783354;80;20179;-74
2021/05/09 12:46:39;;;;;;;;;;;;;;;14.13;43.64;100058.06;1768144;80;20513;-75
2021/05/09 12:49:16;;;;;;;;;;;;;;;14.21;43.78;100052.69;1785398;80;20230;-73
2021/05/09 12:51:52;;;;;;;;;;;;;;;14.83;42.08;100054.98;1784097;79;21242;-74
2021/05/09 12:54:45;;;;;;;;;;;;;;;15.13;41.05;100058.76;1783487;80;20230;-75
2021/05/09 12:57:50;;;;;;;;;;;;;;;15.55;41.16;100053.00;1781954;80;20186;-75
2021/05/09 13:00:19;;;;;;;;;;;;;;;15.36;39.79;100066.84;1686831;84;20274;-76
2021/05/09 13:02:49;;;;;;;;;;;;;;;15.08;40.00;100064.17;1688654;83;20325;-75
2021/05/09 13:05:19;;;;;;;;;;;;;;;15.00;40.85;100060.13;1663923;86;21205;-74
2021/05/09 13:07:49;;;;;;;;;;;;;;;14.94;40.60;100057.97;1677180;85;20249;-75
2021/05/09 13:10:18;;;;;;;;;;;;;;;14.79;40.04;100056.59;1677836;85;20254;-74
2021/05/09 13:12:47;;;;;;;;;;;;;;;14.57;38.16;100056.28;1677785;84;20339;-74
2021/05/09 13:15:15;;;;;;;;;;;;;;;14.78;39.82;100064.44;1676204;85;20393;-74
2021/05/09 13:18:02;;;;;;;;;;;;;;;15.07;39.85;100054.45;1674695;84;22385;-75
2021/05/09 13:20:50;;;;;;;;;;;;;;;14.89;39.57;100047.13;1675303;85;21126;-75
2021/05/09 13:23:18;;;;;;;;;;;;;;;15.58;38.68;100048.42;1676099;82;20322;-75
2021/05/09 13:25:50;;;;;;;;;;;;;;;15.95;39.84;100044.53;1735337;82;20659;-74
2021/05/09 13:28:23;;;;;;;;;;;;;;;16.38;36.95;100056.22;1713066;82;20365;-74
2021/05/09 13:30:54;;;;;;;;;;;;;;;16.01;36.65;100046.11;1737249;82;21443;-76
2021/05/09 13:33:24;;;;;;;;;;;;;;;16.24;38.23;100050.08;1736462;82;20274;-74
2021/05/09 13:35:58;;;;;;;;;;;;;;;16.20;38.84;100048.20;1753088;81;20276;-75
2021/05/09 13:38:45;;;;;;;;;;;;;;;15.74;38.16;100047.04;1752159;81;20502;-74
2021/05/09 13:41:19;;;;;;;;;;;;;;;15.43;38.37;100052.48;1753155;81;20283;-76
2021/05/09 13:43:57;;;;;;;;;;;;;;;15.16;38.63;100060.91;1748223;81;21201;-73
2021/05/09 13:46:25;;;;;;;;;;;;;;;15.01;39.54;100059.83;1752383;81;20327;-74
2021/05/09 13:48:57;;;;;;;;;;;;;;;15.10;40.62;100060.11;1749666;81;20279;-75
2021/05/09 13:51:31;;;;;;;;;;;;;;;15.11;39.85;100060.37;1753650;81;20275;-74
2021/05/09 13:54:02;;;;;;;;;;;;;;;15.09;39.32;100062.56;1754429;81;20732;-73